createdAt,value
2023-03-22T00:01:49.004Z,100379.25
2023-03-22T00:04:18.373Z,100367.53
2023-03-22T00:06:46.406Z,100368.97
2023-03-22T00:09:14.440Z,100360.25
2023-03-22T00:11:42.493Z,100348.06
2023-03-22T00:14:10.731Z,100352.31
2023-03-22T00:16:38.749Z,100341.09
2023-03-22T00:19:06.933Z,100342.28
2023-03-22T00:21:36.291Z,100343.09
2023-03-22T00:24:04.520Z,100337.47
2023-03-22T00:26:32.494Z,100326.94
2023-03-22T00:29:01.005Z,100322.25
2023-03-22T00:31:29.012Z,100324.38
2023-03-22T00:33:57.185Z,100331.78
2023-03-22T00:36:25.221Z,100310.53
2023-03-22T00:38:54.746Z,100305.22
2023-03-22T00:41:24.217Z,100308.41
2023-03-22T00:43:52.439Z,100318.34
2023-03-22T00:46:22.836Z,100291.91
2023-03-22T00:48:50.860Z,100278.31
2023-03-22T00:51:19.101Z,100288.34
2023-03-22T00:53:49.648Z,100281.25
2023-03-22T00:56:19.556Z,100270.53
2023-03-22T00:58:57.040Z,100262.25
2023-03-22T01:01:25.063Z,100264.75
2023-03-22T01:03:53.252Z,100252.00
2023-03-22T01:06:22.056Z,100242.44
2023-03-22T01:08:50.824Z,100236.53
2023-03-22T01:11:20.418Z,100226.84
2023-03-22T01:13:49.009Z,100224.84
2023-03-22T01:16:17.527Z,100213.72
2023-03-22T01:18:46.146Z,100224.84
2023-03-22T01:21:14.443Z,100197.56
2023-03-22T01:23:42.802Z,100202.88
2023-03-22T01:26:11.130Z,100204.75
2023-03-22T01:28:41.150Z,100190.72
2023-03-22T01:31:09.267Z,100195.56
2023-03-22T01:33:37.806Z,100201.69
2023-03-22T01:36:06.937Z,100211.88
2023-03-22T01:38:36.555Z,100195.69
2023-03-22T01:41:04.763Z,100177.50
2023-03-22T01:43:35.874Z,100175.25
2023-03-22T01:46:05.885Z,100177.38
2023-03-22T01:48:36.370Z,100177.97
2023-03-22T01:51:09.357Z,100168.19
2023-03-22T01:54:01.521Z,100158.47
2023-03-22T01:56:34.607Z,100153.91
2023-03-22T01:59:04.017Z,100148.69
2023-03-22T02:01:50.088Z,100162.75
2023-03-22T02:04:23.465Z,100147.28
2023-03-22T02:06:54.130Z,100142.66
2023-03-22T02:09:22.897Z,100143.97
2023-03-22T02:12:02.744Z,100138.44
2023-03-22T02:14:46.318Z,100139.00
2023-03-22T02:17:42.543Z,100141.28
2023-03-22T02:20:48.056Z,100118.25
2023-03-22T02:24:07.666Z,100127.09
2023-03-22T02:27:16.349Z,100112.59
2023-03-22T02:29:48.177Z,100116.25
2023-03-22T02:32:39.343Z,100105.16
2023-03-22T02:35:22.061Z,100094.63
2023-03-22T02:38:25.889Z,100116.34
2023-03-22T02:41:04.652Z,100103.97
2023-03-22T02:43:38.590Z,100091.84
2023-03-22T02:46:11.071Z,100091.13
2023-03-22T02:48:46.329Z,100071.53
2023-03-22T02:51:19.132Z,100083.56
2023-03-22T02:53:53.335Z,100073.28
2023-03-22T02:56:26.353Z,100082.38
2023-03-22T02:58:57.433Z,100056.91
2023-03-22T03:01:27.596Z,100056.53
2023-03-22T03:03:59.912Z,100054.41
2023-03-22T03:06:31.131Z,100067.28
2023-03-22T03:09:02.748Z,100060.91
2023-03-22T03:11:32.989Z,100053.22
2023-03-22T03:14:01.631Z,100047.09
2023-03-22T03:16:36.643Z,100037.16
2023-03-22T03:19:12.510Z,100037.31
2023-03-22T03:21:51.814Z,100026.78
2023-03-22T03:24:28.728Z,100031.41
2023-03-22T03:27:03.590Z,100025.16
2023-03-22T03:29:39.888Z,100011.09
2023-03-22T03:32:11.937Z,100018.66
2023-03-22T03:34:49.530Z,100012.63
2023-03-22T03:41:51.330Z,100013.13
2023-03-22T03:44:22.197Z,100008.88
2023-03-22T03:46:51.679Z,100013.47
2023-03-22T03:49:22.980Z,99994.81
2023-03-22T03:51:53.440Z,100020.44
2023-03-22T03:54:21.728Z,100001.91
2023-03-22T03:56:50.966Z,100002.03
2023-03-22T03:59:20.966Z,99993.53
2023-03-22T04:01:51.859Z,99985.53
2023-03-22T04:04:28.886Z,100004.38
2023-03-22T04:07:04.317Z,99984.56
2023-03-22T04:09:35.096Z,99987.75
2023-03-22T04:12:13.739Z,99986.94
2023-03-22T04:14:45.062Z,99996.84
2023-03-22T04:17:47.010Z,99997.31
2023-03-22T04:20:16.943Z,99986.94
2023-03-22T04:22:46.852Z,99988.94
2023-03-22T04:25:18.265Z,99975.25
2023-03-22T04:27:56.334Z,99978.47
2023-03-22T04:30:27.564Z,99969.47
2023-03-22T04:33:07.004Z,99982.47
2023-03-22T04:36:49.773Z,99984.81
2023-03-22T04:39:24.616Z,99979.16
2023-03-22T04:42:11.770Z,99975.63
2023-03-22T04:44:40.983Z,99987.75
2023-03-22T04:48:25.492Z,99975.75
2023-03-22T04:51:43.670Z,99982.09
2023-03-22T04:54:36.829Z,99994.22
2023-03-22T04:57:30.821Z,99979.16
2023-03-22T04:59:58.847Z,99984.22
2023-03-22T05:02:26.974Z,99980.59
2023-03-22T05:04:55.498Z,99980.47
2023-03-22T05:07:40.266Z,99970.88
2023-03-22T05:10:12.074Z,99974.69
2023-03-22T05:12:41.162Z,99992.97
2023-03-22T05:15:41.775Z,99972.53
2023-03-22T05:18:10.876Z,99980.59
2023-03-22T05:20:39.722Z,99979.03
2023-03-22T05:23:13.544Z,99973.75
2023-03-22T05:25:46.782Z,99971.84
2023-03-22T05:28:19.574Z,99985.91
2023-03-22T05:30:57.185Z,99973.97
2023-03-22T05:33:35.596Z,99984.34
2023-03-22T05:36:04.831Z,99973.97
2023-03-22T05:38:38.486Z,99982.44
2023-03-22T05:41:36.536Z,99980.22
2023-03-22T05:44:05.406Z,99984.97
2023-03-22T05:46:34.471Z,99977.75
2023-03-22T05:49:21.622Z,99979.88
2023-03-22T05:51:50.631Z,99975.25
2023-03-22T05:54:19.399Z,99972.78
2023-03-22T05:56:55.328Z,99977.75
2023-03-22T05:59:23.901Z,99982.00
2023-03-22T06:01:52.199Z,99986.59
2023-03-22T06:04:24.127Z,99997.19
2023-03-22T06:07:09.802Z,99986.94
2023-03-22T06:09:43.024Z,99991.75
2023-03-22T06:12:18.665Z,99989.91
2023-03-22T06:14:51.711Z,99979.06
2023-03-22T06:18:53.706Z,99994.47
2023-03-22T06:21:22.050Z,99986.47
2023-03-22T06:23:50.125Z,99986.34
2023-03-22T06:26:18.221Z,99984.81
2023-03-22T06:28:48.230Z,99981.75
2023-03-22T06:31:16.459Z,99986.25
2023-03-22T06:34:04.524Z,99984.47
2023-03-22T06:36:48.350Z,99988.00
2023-03-22T06:46:43.689Z,99972.78
2023-03-22T06:49:59.509Z,99959.59
2023-03-22T06:53:16.337Z,99954.75
2023-03-22T06:56:24.306Z,99950.03
2023-03-22T06:59:14.914Z,99950.97
2023-03-22T07:01:52.175Z,99955.09
2023-03-22T07:04:39.250Z,99955.44
2023-03-22T07:07:27.745Z,99941.41
2023-03-22T07:13:30.906Z,99889.03
2023-03-22T07:16:43.652Z,99893.16
2023-03-22T07:19:22.702Z,99935.28
2023-03-22T07:22:01.565Z,99919.00
2023-03-22T07:24:57.718Z,99899.03
2023-03-22T07:31:28.478Z,99946.94
2023-03-22T07:35:43.496Z,99969.22
2023-03-22T07:38:18.938Z,99978.41
2023-03-22T07:44:54.004Z,99976.41
2023-03-22T07:47:47.883Z,99976.41
2023-03-22T07:50:48.144Z,99973.22
2023-03-22T07:53:46.262Z,99979.69
2023-03-22T07:56:49.798Z,99983.09
2023-03-22T07:59:46.987Z,99988.63
2023-03-22T08:03:16.644Z,99997.38
2023-03-22T08:06:24.490Z,99984.94
2023-03-22T08:09:08.530Z,99986.13
2023-03-22T08:14:58.759Z,99963.41
2023-03-22T08:18:09.851Z,99981.25
2023-03-22T08:26:20.148Z,99990.09
2023-03-22T08:46:28.385Z,99972.50
2023-03-22T08:49:39.577Z,99969.41
2023-03-22T09:27:15.452Z,100021.22
2023-03-22T09:30:37.595Z,100016.69
2023-03-22T09:36:36.750Z,100024.63
2023-03-22T09:40:11.331Z,100019.19
2023-03-22T09:43:56.135Z,100014.81
2023-03-22T09:50:56.747Z,100020.03
2023-03-22T09:54:00.355Z,100009.97
2023-03-22T09:57:59.504Z,100025.63
2023-03-22T10:05:40.773Z,100020.72
2023-03-22T10:13:32.309Z,100015.66
2023-03-22T10:20:58.360Z,100002.22
2023-03-22T10:27:22.723Z,100015.41
2023-03-22T10:34:46.978Z,100020.09
2023-03-22T10:46:30.256Z,100034.34
2023-03-22T10:59:27.594Z,100029.22
2023-03-22T11:03:05.457Z,100034.69
2023-03-22T11:07:00.133Z,100027.41
2023-03-22T11:13:19.788Z,100016.63
2023-03-22T11:33:28.244Z,100029.59
2023-03-22T11:35:59.559Z,100024.19
2023-03-22T11:38:30.818Z,100025.38
2023-03-22T11:41:02.889Z,100006.66
2023-03-22T11:43:35.853Z,99999.31
2023-03-22T11:46:05.060Z,100010.00
2023-03-22T11:48:34.351Z,100005.31
2023-03-22T11:51:09.991Z,99996.22
2023-03-22T11:53:41.272Z,99994.28
2023-03-22T11:56:12.582Z,99991.91
2023-03-22T11:58:56.338Z,100016.44
2023-03-22T12:01:34.306Z,99996.88
2023-03-22T12:04:04.889Z,100002.06
2023-03-22T12:06:37.909Z,100007.34
2023-03-22T12:09:12.011Z,99984.75
2023-03-22T12:11:42.486Z,100008.31
2023-03-22T12:14:20.316Z,99995.72
2023-03-22T12:16:52.015Z,100006.84
2023-03-22T12:19:34.167Z,100003.84
2023-03-22T12:22:03.729Z,99995.91
2023-03-22T12:24:33.323Z,99989.41
2023-03-22T12:27:05.650Z,99977.41
2023-03-22T12:29:35.006Z,99983.66
2023-03-22T12:32:08.444Z,99986.41
2023-03-22T12:34:41.901Z,99978.19
2023-03-22T12:37:19.078Z,99985.81
2023-03-22T12:39:51.721Z,99977.69
2023-03-22T12:42:25.247Z,99986.66
2023-03-22T12:45:05.139Z,99974.91
2023-03-22T12:47:41.899Z,99966.19
2023-03-22T12:50:14.961Z,99963.44
2023-03-22T12:52:47.253Z,99970.53
2023-03-22T12:55:23.710Z,99970.59
2023-03-22T12:57:52.418Z,99975.72
2023-03-22T13:00:22.308Z,99966.50
2023-03-22T13:02:58.291Z,99953.13
2023-03-22T13:05:30.073Z,99959.66
2023-03-22T13:08:05.444Z,99968.47
2023-03-22T13:11:06.778Z,99944.91
2023-03-22T13:13:42.938Z,99950.91
2023-03-22T13:16:49.591Z,99945.44
2023-03-22T13:19:53.588Z,99966.81
2023-03-22T13:22:27.030Z,99952.84
2023-03-22T13:25:13.641Z,99962.16
2023-03-22T13:27:51.372Z,99961.34
2023-03-22T13:30:25.918Z,99973.09
2023-03-22T13:32:56.694Z,99973.09
2023-03-22T13:35:28.278Z,99977.13
2023-03-22T13:38:03.273Z,99970.03
2023-03-22T13:40:37.501Z,99951.44
2023-03-22T13:43:13.991Z,99932.81
2023-03-22T13:46:03.670Z,99933.38
2023-03-22T13:48:41.441Z,99919.94
2023-03-22T13:51:13.488Z,99913.13
2023-03-22T13:53:45.663Z,99915.84
2023-03-22T13:56:15.671Z,99905.16
2023-03-22T13:58:54.046Z,99883.25
2023-03-22T14:01:29.787Z,99883.75
2023-03-22T14:04:02.272Z,99874.16
2023-03-22T14:06:36.145Z,99874.13
2023-03-22T14:09:13.361Z,99869.22
2023-03-22T14:11:50.639Z,99874.09
2023-03-22T14:14:23.233Z,99877.31
2023-03-22T14:16:56.449Z,99870.19
2023-03-22T14:19:28.473Z,99867.47
